sensor_id;sensor_type;location;lat;lon;timestamp;P1;durP1;ratioP1;P2;durP2;ratioP2
8151;SDS011;4117;53.622;9.958;2023-04-01T00:00:07;1.00;;;0.60;;
8151;SDS011;4117;53.622;9.958;2023-04-01T00:02:35;0.50;;;0.50;;
8151;SDS011;4117;53.622;9.958;2023-04-01T00:05:02;0.87;;;0.53;;
8151;SDS011;4117;53.622;9.958;2023-04-01T00:07:30;0.93;;;0.50;;
8151;SDS011;4117;53.622;9.958;2023-04-01T00:09:59;1.50;;;0.80;;
8151;SDS011;4117;53.622;9.958;2023-04-01T00:12:26;0.30;;;0.30;;
8151;SDS011;4117;53.622;9.958;2023-04-01T00:14:53;0.47;;;0.47;;
8151;SDS011;4117;53.622;9.958;2023-04-01T00:17:19;0.87;;;0.60;;
8151;SDS011;4117;53.622;9.958;2023-04-01T00:19:46;0.53;;;0.50;;
8151;SDS011;4117;53.622;9.958;2023-04-01T00:22:13;0.60;;;0.43;;
8151;SDS011;4117;53.622;9.958;2023-04-01T00:24:40;0.50;;;0.50;;
8151;SDS011;4117;53.622;9.958;2023-04-01T00:27:08;0.77;;;0.70;;
8151;SDS011;4117;53.622;9.958;2023-04-01T00:29:35;0.80;;;0.50;;
8151;SDS011;4117;53.622;9.958;2023-04-01T00:32:02;0.80;;;0.70;;
8151;SDS011;4117;53.622;9.958;2023-04-01T00:34:29;0.90;;;0.50;;
8151;SDS011;4117;53.622;9.958;2023-04-01T00:36:56;0.87;;;0.60;;
8151;SDS011;4117;53.622;9.958;2023-04-01T00:39:22;0.90;;;0.67;;
8151;SDS011;4117;53.622;9.958;2023-04-01T00:41:49;0.40;;;0.40;;
8151;SDS011;4117;53.622;9.958;2023-04-01T00:44:19;3.17;;;0.63;;
8151;SDS011;4117;53.622;9.958;2023-04-01T00:46:48;0.67;;;0.50;;
8151;SDS011;4117;53.622;9.958;2023-04-01T00:49:16;0.93;;;0.63;;
8151;SDS011;4117;53.622;9.958;2023-04-01T00:51:45;1.23;;;0.63;;
8151;SDS011;4117;53.622;9.958;2023-04-01T00:54:15;1.47;;;0.60;;
8151;SDS011;4117;53.622;9.958;2023-04-01T00:56:46;0.40;;;0.30;;
8151;SDS011;4117;53.622;9.958;2023-04-01T00:59:22;0.90;;;0.50;;
8151;SDS011;4117;53.622;9.958;2023-04-01T01:01:50;1.20;;;0.77;;
8151;SDS011;4117;53.622;9.958;2023-04-01T01:04:21;1.13;;;0.97;;
8151;SDS011;4117;53.622;9.958;2023-04-01T01:06:51;0.60;;;0.40;;
8151;SDS011;4117;53.622;9.958;2023-04-01T01:09:30;0.63;;;0.63;;
8151;SDS011;4117;53.622;9.958;2023-04-01T01:12:06;0.30;;;0.30;;
8151;SDS011;4117;53.622;9.958;2023-04-01T01:14:48;0.63;;;0.50;;
8151;SDS011;4117;53.622;9.958;2023-04-01T01:17:23;0.63;;;0.50;;
8151;SDS011;4117;53.622;9.958;2023-04-01T01:22:57;1.23;;;0.53;;
8151;SDS011;4117;53.622;9.958;2023-04-01T01:25:40;0.93;;;0.53;;
8151;SDS011;4117;53.622;9.958;2023-04-01T01:28:21;0.60;;;0.40;;
8151;SDS011;4117;53.622;9.958;2023-04-01T01:31:01;0.40;;;0.40;;
8151;SDS011;4117;53.622;9.958;2023-04-01T01:33:52;1.43;;;0.73;;
8151;SDS011;4117;53.622;9.958;2023-04-01T01:36:33;0.83;;;0.53;;
8151;SDS011;4117;53.622;9.958;2023-04-01T01:39:00;0.60;;;0.40;;
8151;SDS011;4117;53.622;9.958;2023-04-01T01:41:29;0.73;;;0.30;;
8151;SDS011;4117;53.622;9.958;2023-04-01T01:43:57;0.30;;;0.30;;
8151;SDS011;4117;53.622;9.958;2023-04-01T01:46:28;0.30;;;0.30;;
8151;SDS011;4117;53.622;9.958;2023-04-01T01:48:56;0.47;;;0.47;;
8151;SDS011;4117;53.622;9.958;2023-04-01T01:51:26;2.83;;;0.60;;
8151;SDS011;4117;53.622;9.958;2023-04-01T01:53:55;0.50;;;0.40;;
8151;SDS011;4117;53.622;9.958;2023-04-01T01:56:22;0.70;;;0.40;;
8151;SDS011;4117;53.622;9.958;2023-04-01T01:58:52;0.33;;;0.30;;
8151;SDS011;4117;53.622;9.958;2023-04-01T02:01:23;0.50;;;0.40;;
8151;SDS011;4117;53.622;9.958;2023-04-01T02:03:52;0.50;;;0.37;;
8151;SDS011;4117;53.622;9.958;2023-04-01T02:06:26;0.60;;;0.50;;
8151;SDS011;4117;53.622;9.958;2023-04-01T02:08:59;0.70;;;0.60;;
8151;SDS011;4117;53.622;9.958;2023-04-01T02:11:29;0.60;;;0.50;;
8151;SDS011;4117;53.622;9.958;2023-04-01T02:14:04;0.60;;;0.53;;
8151;SDS011;4117;53.622;9.958;2023-04-01T02:16:34;0.27;;;0.27;;
8151;SDS011;4117;53.622;9.958;2023-04-01T02:19:06;1.20;;;0.63;;
8151;SDS011;4117;53.622;9.958;2023-04-01T02:21:35;0.70;;;0.43;;
8151;SDS011;4117;53.622;9.958;2023-04-01T02:24:07;0.83;;;0.40;;
8151;SDS011;4117;53.622;9.958;2023-04-01T02:26:39;0.90;;;0.50;;
8151;SDS011;4117;53.622;9.958;2023-04-01T02:29:07;0.37;;;0.30;;
8151;SDS011;4117;53.622;9.958;2023-04-01T02:31:38;0.77;;;0.37;;
8151;SDS011;4117;53.622;9.958;2023-04-01T02:34:05;0.30;;;0.30;;
8151;SDS011;4117;53.622;9.958;2023-04-01T02:36:34;0.77;;;0.60;;
8151;SDS011;4117;53.622;9.958;2023-04-01T02:39:02;0.47;;;0.40;;
8151;SDS011;4117;53.622;9.958;2023-04-01T02:41:32;0.97;;;0.60;;
8151;SDS011;4117;53.622;9.958;2023-04-01T02:44:05;0.70;;;0.60;;
8151;SDS011;4117;53.622;9.958;2023-04-01T02:46:33;2.00;;;0.57;;
8151;SDS011;4117;53.622;9.958;2023-04-01T02:49:00;2.50;;;0.50;;
8151;SDS011;4117;53.622;9.958;2023-04-01T02:51:28;0.40;;;0.40;;
8151;SDS011;4117;53.622;9.958;2023-04-01T02:53:55;0.47;;;0.37;;
8151;SDS011;4117;53.622;9.958;2023-04-01T02:56:22;0.40;;;0.40;;
8151;SDS011;4117;53.622;9.958;2023-04-01T02:58:52;0.50;;;0.50;;
8151;SDS011;4117;53.622;9.958;2023-04-01T03:01:19;0.27;;;0.20;;
8151;SDS011;4117;53.622;9.958;2023-04-01T03:03:47;0.37;;;0.37;;
8151;SDS011;4117;53.622;9.958;2023-04-01T03:06:14;1.00;;;0.53;;
8151;SDS011;4117;53.622;9.958;2023-04-01T03:08:43;0.43;;;0.43;;
8151;SDS011;4117;53.622;9.958;2023-04-01T03:11:11;1.13;;;0.73;;
8151;SDS011;4117;53.622;9.958;2023-04-01T03:13:38;0.37;;;0.37;;
8151;SDS011;4117;53.622;9.958;2023-04-01T03:16:07;0.67;;;0.50;;
8151;SDS011;4117;53.622;9.958;2023-04-01T03:18:34;0.87;;;0.40;;
8151;SDS011;4117;53.622;9.958;2023-04-01T03:21:12;0.50;;;0.50;;
8151;SDS011;4117;53.622;9.958;2023-04-01T03:23:43;0.60;;;0.40;;
8151;SDS011;4117;53.622;9.958;2023-04-01T03:26:10;1.07;;;0.47;;
8151;SDS011;4117;53.622;9.958;2023-04-01T03:28:41;1.23;;;0.60;;
8151;SDS011;4117;53.622;9.958;2023-04-01T03:31:12;4.00;;;0.60;;
8151;SDS011;4117;53.622;9.958;2023-04-01T03:33:41;0.23;;;0.23;;
8151;SDS011;4117;53.622;9.958;2023-04-01T03:36:11;0.93;;;0.50;;
8151;SDS011;4117;53.622;9.958;2023-04-01T03:38:38;0.20;;;0.20;;
8151;SDS011;4117;53.622;9.958;2023-04-01T03:41:25;0.73;;;0.67;;
8151;SDS011;4117;53.622;9.958;2023-04-01T03:46:58;0.40;;;0.40;;
8151;SDS011;4117;53.622;9.958;2023-04-01T03:49:26;1.07;;;0.70;;
8151;SDS011;4117;53.622;9.958;2023-04-01T03:51:53;1.10;;;0.30;;
8151;SDS011;4117;53.622;9.958;2023-04-01T03:54:20;1.70;;;0.57;;
8151;SDS011;4117;53.622;9.958;2023-04-01T03:56:56;0.93;;;0.80;;
8151;SDS011;4117;53.622;9.958;2023-04-01T03:59:23;0.60;;;0.60;;
8151;SDS011;4117;53.622;9.958;2023-04-01T04:02:35;0.57;;;0.57;;
8151;SDS011;4117;53.622;9.958;2023-04-01T04:05:00;0.57;;;0.37;;
8151;SDS011;4117;53.622;9.958;2023-04-01T04:07:27;0.40;;;0.40;;
8151;SDS011;4117;53.622;9.958;2023-04-01T04:09:57;0.50;;;0.50;;
8151;SDS011;4117;53.622;9.958;2023-04-01T04:12:26;2.57;;;0.70;;
8151;SDS011;4117;53.622;9.958;2023-04-01T04:14:54;0.60;;;0.50;;
8151;SDS011;4117;53.622;9.958;2023-04-01T04:17:21;1.63;;;0.67;;
8151;SDS011;4117;53.622;9.958;2023-04-01T04:19:48;0.53;;;0.43;;
8151;SDS011;4117;53.622;9.958;2023-04-01T04:22:16;0.50;;;0.50;;
8151;SDS011;4117;53.622;9.958;2023-04-01T04:24:44;0.63;;;0.37;;
8151;SDS011;4117;53.622;9.958;2023-04-01T04:27:10;0.60;;;0.53;;
8151;SDS011;4117;53.622;9.958;2023-04-01T04:29:37;0.17;;;0.17;;
8151;SDS011;4117;53.622;9.958;2023-04-01T04:32:05;0.43;;;0.43;;
8151;SDS011;4117;53.622;9.958;2023-04-01T04:34:32;0.87;;;0.50;;
8151;SDS011;4117;53.622;9.958;2023-04-01T04:36:59;0.87;;;0.50;;
8151;SDS011;4117;53.622;9.958;2023-04-01T04:39:28;0.70;;;0.67;;
8151;SDS011;4117;53.622;9.958;2023-04-01T04:41:55;0.60;;;0.60;;
8151;SDS011;4117;53.622;9.958;2023-04-01T04:44:22;0.30;;;0.30;;
8151;SDS011;4117;53.622;9.958;2023-04-01T04:46:49;0.70;;;0.50;;
8151;SDS011;4117;53.622;9.958;2023-04-01T04:49:16;0.73;;;0.50;;
8151;SDS011;4117;53.622;9.958;2023-04-01T04:51:43;0.63;;;0.60;;
8151;SDS011;4117;53.622;9.958;2023-04-01T04:54:10;1.33;;;0.77;;
8151;SDS011;4117;53.622;9.958;2023-04-01T04:56:40;0.30;;;0.30;;
8151;SDS011;4117;53.622;9.958;2023-04-01T04:59:07;0.70;;;0.60;;
8151;SDS011;4117;53.622;9.958;2023-04-01T05:01:34;0.30;;;0.30;;
8151;SDS011;4117;53.622;9.958;2023-04-01T05:04:04;0.43;;;0.40;;
8151;SDS011;4117;53.622;9.958;2023-04-01T05:06:31;0.10;;;0.10;;
8151;SDS011;4117;53.622;9.958;2023-04-01T05:08:58;0.00;;;0.00;;
8151;SDS011;4117;53.622;9.958;2023-04-01T05:11:30;0.10;;;0.10;;
8151;SDS011;4117;53.622;9.958;2023-04-01T05:13:58;0.20;;;0.20;;
8151;SDS011;4117;53.622;9.958;2023-04-01T05:16:27;0.10;;;0.10;;
8151;SDS011;4117;53.622;9.958;2023-04-01T05:18:56;0.00;;;0.00;;
8151;SDS011;4117;53.622;9.958;2023-04-01T05:21:23;0.10;;;0.10;;
8151;SDS011;4117;53.622;9.958;2023-04-01T05:24:03;0.00;;;0.00;;
8151;SDS011;4117;53.622;9.958;2023-04-01T05:26:45;0.00;;;0.00;;
8151;SDS011;4117;53.622;9.958;2023-04-01T05:29:14;0.20;;;0.20;;
8151;SDS011;4117;53.622;9.958;2023-04-01T05:31:50;0.20;;;0.10;;
8151;SDS011;4117;53.622;9.958;2023-04-01T05:34:17;0.30;;;0.30;;
8151;SDS011;4117;53.622;9.958;2023-04-01T05:36:46;0.00;;;0.00;;
8151;SDS011;4117;53.622;9.958;2023-04-01T05:39:14;0.30;;;0.30;;
8151;SDS011;4117;53.622;9.958;2023-04-01T05:41:41;0.20;;;0.20;;
8151;SDS011;4117;53.622;9.958;2023-04-01T05:44:10;0.00;;;0.00;;
8151;SDS011;4117;53.622;9.958;2023-04-01T05:46:40;0.10;;;0.10;;
8151;SDS011;4117;53.622;9.958;2023-04-01T05:49:07;0.20;;;0.20;;
8151;SDS011;4117;53.622;9.958;2023-04-01T05:51:34;0.10;;;0.10;;
8151;SDS011;4117;53.622;9.958;2023-04-01T05:54:03;0.87;;;0.13;;
8151;SDS011;4117;53.622;9.958;2023-04-01T05:56:30;0.10;;;0.10;;
8151;SDS011;4117;53.622;9.958;2023-04-01T05:58:58;0.00;;;0.00;;
8151;SDS011;4117;53.622;9.958;2023-04-01T06:01:25;0.73;;;0.40;;
8151;SDS011;4117;53.622;9.958;2023-04-01T06:03:54;0.10;;;0.10;;
8151;SDS011;4117;53.622;9.958;2023-04-01T06:06:23;0.10;;;0.10;;
8151;SDS011;4117;53.622;9.958;2023-04-01T06:08:56;0.20;;;0.20;;
8151;SDS011;4117;53.622;9.958;2023-04-01T06:11:28;0.17;;;0.17;;
8151;SDS011;4117;53.622;9.958;2023-04-01T06:17:17;0.20;;;0.20;;
8151;SDS011;4117;53.622;9.958;2023-04-01T06:20:08;0.20;;;0.20;;
8151;SDS011;4117;53.622;9.958;2023-04-01T06:23:09;0.03;;;0.03;;
8151;SDS011;4117;53.622;9.958;2023-04-01T06:26:26;0.10;;;0.10;;
8151;SDS011;4117;53.622;9.958;2023-04-01T06:29:16;0.10;;;0.10;;
8151;SDS011;4117;53.622;9.958;2023-04-01T06:32:23;0.23;;;0.20;;
8151;SDS011;4117;53.622;9.958;2023-04-01T06:36:03;0.10;;;0.10;;
8151;SDS011;4117;53.622;9.958;2023-04-01T06:39:06;0.30;;;0.20;;
8151;SDS011;4117;53.622;9.958;2023-04-01T06:41:58;0.20;;;0.20;;
8151;SDS011;4117;53.622;9.958;2023-04-01T06:45:02;0.13;;;0.13;;
8151;SDS011;4117;53.622;9.958;2023-04-01T06:47:52;0.50;;;0.27;;
8151;SDS011;4117;53.622;9.958;2023-04-01T06:50:54;0.13;;;0.13;;
8151;SDS011;4117;53.622;9.958;2023-04-01T06:53:33;0.20;;;0.20;;
8151;SDS011;4117;53.622;9.958;2023-04-01T06:56:24;0.03;;;0.03;;
8151;SDS011;4117;53.622;9.958;2023-04-01T06:59:12;0.10;;;0.10;;
8151;SDS011;4117;53.622;9.958;2023-04-01T07:02:11;0.10;;;0.10;;
8151;SDS011;4117;53.622;9.958;2023-04-01T07:04:58;0.10;;;0.10;;
8151;SDS011;4117;53.622;9.958;2023-04-01T07:10:53;0.10;;;0.10;;
8151;SDS011;4117;53.622;9.958;2023-04-01T07:16:58;0.20;;;0.20;;
8151;SDS011;4117;53.622;9.958;2023-04-01T07:19:42;0.00;;;0.00;;
8151;SDS011;4117;53.622;9.958;2023-04-01T07:22:40;0.10;;;0.10;;
8151;SDS011;4117;53.622;9.958;2023-04-01T07:25:13;0.67;;;0.20;;
8151;SDS011;4117;53.622;9.958;2023-04-01T07:31:07;0.10;;;0.10;;
8151;SDS011;4117;53.622;9.958;2023-04-01T07:33:54;0.10;;;0.10;;
8151;SDS011;4117;53.622;9.958;2023-04-01T07:36:32;0.00;;;0.00;;
8151;SDS011;4117;53.622;9.958;2023-04-01T07:39:06;0.10;;;0.10;;
8151;SDS011;4117;53.622;9.958;2023-04-01T07:41:49;0.10;;;0.10;;
8151;SDS011;4117;53.622;9.958;2023-04-01T07:44:29;0.40;;;0.30;;
8151;SDS011;4117;53.622;9.958;2023-04-01T07:47:13;0.03;;;0.03;;
8151;SDS011;4117;53.622;9.958;2023-04-01T07:49:58;0.13;;;0.13;;
8151;SDS011;4117;53.622;9.958;2023-04-01T07:52:39;0.30;;;0.10;;
8151;SDS011;4117;53.622;9.958;2023-04-01T07:55:14;0.10;;;0.10;;
8151;SDS011;4117;53.622;9.958;2023-04-01T07:58:08;0.20;;;0.20;;
8151;SDS011;4117;53.622;9.958;2023-04-01T08:01:33;0.40;;;0.10;;
8151;SDS011;4117;53.622;9.958;2023-04-01T08:04:18;0.20;;;0.20;;
8151;SDS011;4117;53.622;9.958;2023-04-01T08:07:58;0.10;;;0.10;;
8151;SDS011;4117;53.622;9.958;2023-04-01T08:10:39;0.20;;;0.20;;
8151;SDS011;4117;53.622;9.958;2023-04-01T08:13:50;0.30;;;0.30;;
8151;SDS011;4117;53.622;9.958;2023-04-01T08:16:33;0.10;;;0.10;;
8151;SDS011;4117;53.622;9.958;2023-04-01T08:19:15;0.00;;;0.00;;
8151;SDS011;4117;53.622;9.958;2023-04-01T08:22:14;0.07;;;0.07;;
8151;SDS011;4117;53.622;9.958;2023-04-01T08:24:55;0.10;;;0.10;;
8151;SDS011;4117;53.622;9.958;2023-04-01T08:27:40;0.20;;;0.20;;
8151;SDS011;4117;53.622;9.958;2023-04-01T08:30:30;0.40;;;0.10;;
8151;SDS011;4117;53.622;9.958;2023-04-01T08:33:16;0.10;;;0.10;;
8151;SDS011;4117;53.622;9.958;2023-04-01T08:36:03;0.10;;;0.10;;
8151;SDS011;4117;53.622;9.958;2023-04-01T08:38:41;0.20;;;0.20;;
8151;SDS011;4117;53.622;9.958;2023-04-01T08:41:19;0.10;;;0.10;;
8151;SDS011;4117;53.622;9.958;2023-04-01T08:50:36;0.10;;;0.10;;
8151;SDS011;4117;53.622;9.958;2023-04-01T08:53:32;0.10;;;0.10;;
8151;SDS011;4117;53.622;9.958;2023-04-01T08:56:17;0.00;;;0.00;;
8151;SDS011;4117;53.622;9.958;2023-04-01T08:59:04;0.10;;;0.10;;
8151;SDS011;4117;53.622;9.958;2023-04-01T09:05:24;0.00;;;0.00;;
8151;SDS011;4117;53.622;9.958;2023-04-01T09:08:20;0.10;;;0.10;;
8151;SDS011;4117;53.622;9.958;2023-04-01T09:11:27;0.10;;;0.10;;
8151;SDS011;4117;53.622;9.958;2023-04-01T09:14:28;0.10;;;0.10;;
8151;SDS011;4117;53.622;9.958;2023-04-01T09:20:58;0.00;;;0.00;;
8151;SDS011;4117;53.622;9.958;2023-04-01T09:26:47;0.00;;;0.00;;
8151;SDS011;4117;53.622;9.958;2023-04-01T09:29:29;0.10;;;0.10;;
8151;SDS011;4117;53.622;9.958;2023-04-01T09:32:17;0.13;;;0.13;;
8151;SDS011;4117;53.622;9.958;2023-04-01T09:35:22;0.10;;;0.10;;
8151;SDS011;4117;53.622;9.958;2023-04-01T09:37:53;0.10;;;0.10;;
8151;SDS011;4117;53.622;9.958;2023-04-01T09:40:31;0.00;;;0.00;;
8151;SDS011;4117;53.622;9.958;2023-04-01T09:43:20;0.20;;;0.20;;
8151;SDS011;4117;53.622;9.958;2023-04-01T09:46:06;0.00;;;0.00;;
8151;SDS011;4117;53.622;9.958;2023-04-01T09:49:06;0.10;;;0.10;;
8151;SDS011;4117;53.622;9.958;2023-04-01T09:51:54;0.00;;;0.00;;
8151;SDS011;4117;53.622;9.958;2023-04-01T09:54:38;0.37;;;0.30;;
8151;SDS011;4117;53.622;9.958;2023-04-01T10:00:45;1.30;;;0.10;;
8151;SDS011;4117;53.622;9.958;2023-04-01T10:13:30;0.10;;;0.10;;
8151;SDS011;4117;53.622;9.958;2023-04-01T10:19:30;0.10;;;0.10;;
8151;SDS011;4117;53.622;9.958;2023-04-01T10:22:17;0.00;;;0.00;;
8151;SDS011;4117;53.622;9.958;2023-04-01T10:27:59;0.10;;;0.10;;
8151;SDS011;4117;53.622;9.958;2023-04-01T10:30:55;0.10;;;0.10;;
8151;SDS011;4117;53.622;9.958;2023-04-01T10:33:49;0.10;;;0.10;;
8151;SDS011;4117;53.622;9.958;2023-04-01T10:36:52;0.20;;;0.13;;
8151;SDS011;4117;53.622;9.958;2023-04-01T10:45:52;0.23;;;0.20;;
8151;SDS011;4117;53.622;9.958;2023-04-01T10:55:00;0.00;;;0.00;;
8151;SDS011;4117;53.622;9.958;2023-04-01T11:00:56;0.03;;;0.03;;
8151;SDS011;4117;53.622;9.958;2023-04-01T11:04:01;0.00;;;0.00;;
8151;SDS011;4117;53.622;9.958;2023-04-01T11:16:28;0.30;;;0.20;;
8151;SDS011;4117;53.622;9.958;2023-04-01T11:19:35;0.07;;;0.07;;
8151;SDS011;4117;53.622;9.958;2023-04-01T11:22:30;0.10;;;0.10;;
8151;SDS011;4117;53.622;9.958;2023-04-01T11:25:09;0.27;;;0.27;;
8151;SDS011;4117;53.622;9.958;2023-04-01T11:27:57;0.07;;;0.07;;
8151;SDS011;4117;53.622;9.958;2023-04-01T11:30:54;0.20;;;0.20;;
8151;SDS011;4117;53.622;9.958;2023-04-01T11:33:33;0.20;;;0.20;;
8151;SDS011;4117;53.622;9.958;2023-04-01T11:36:06;2.27;;;0.30;;
8151;SDS011;4117;53.622;9.958;2023-04-01T11:38:53;0.17;;;0.17;;
8151;SDS011;4117;53.622;9.958;2023-04-01T11:41:31;0.10;;;0.10;;
8151;SDS011;4117;53.622;9.958;2023-04-01T11:44:15;0.20;;;0.20;;
8151;SDS011;4117;53.622;9.958;2023-04-01T11:46:48;0.20;;;0.20;;
8151;SDS011;4117;53.622;9.958;2023-04-01T11:49:35;0.30;;;0.30;;
8151;SDS011;4117;53.622;9.958;2023-04-01T11:52:21;0.27;;;0.27;;
8151;SDS011;4117;53.622;9.958;2023-04-01T11:55:06;0.33;;;0.23;;
8151;SDS011;4117;53.622;9.958;2023-04-01T11:57:51;0.40;;;0.40;;
8151;SDS011;4117;53.622;9.958;2023-04-01T12:00:57;0.37;;;0.37;;
8151;SDS011;4117;53.622;9.958;2023-04-01T12:03:37;0.30;;;0.30;;
8151;SDS011;4117;53.622;9.958;2023-04-01T12:06:26;0.43;;;0.43;;
8151;SDS011;4117;53.622;9.958;2023-04-01T12:09:04;0.60;;;0.40;;
8151;SDS011;4117;53.622;9.958;2023-04-01T12:11:43;0.60;;;0.43;;
8151;SDS011;4117;53.622;9.958;2023-04-01T12:14:18;0.10;;;0.10;;
8151;SDS011;4117;53.622;9.958;2023-04-01T12:16:58;0.10;;;0.10;;
8151;SDS011;4117;53.622;9.958;2023-04-01T12:19:35;0.40;;;0.30;;
8151;SDS011;4117;53.622;9.958;2023-04-01T12:22:23;0.30;;;0.30;;
8151;SDS011;4117;53.622;9.958;2023-04-01T12:25:03;0.10;;;0.10;;
8151;SDS011;4117;53.622;9.958;2023-04-01T12:27:45;0.37;;;0.37;;
8151;SDS011;4117;53.622;9.958;2023-04-01T12:30:41;0.40;;;0.40;;
8151;SDS011;4117;53.622;9.958;2023-04-01T12:36:18;0.20;;;0.20;;
8151;SDS011;4117;53.622;9.958;2023-04-01T12:39:00;0.30;;;0.30;;
8151;SDS011;4117;53.622;9.958;2023-04-01T12:41:54;0.93;;;0.60;;
8151;SDS011;4117;53.622;9.958;2023-04-01T12:44:33;0.33;;;0.33;;
8151;SDS011;4117;53.622;9.958;2023-04-01T12:47:16;0.30;;;0.30;;
8151;SDS011;4117;53.622;9.958;2023-04-01T12:50:07;0.33;;;0.33;;
8151;SDS011;4117;53.622;9.958;2023-04-01T12:52:45;0.80;;;0.50;;
8151;SDS011;4117;53.622;9.958;2023-04-01T12:55:41;0.20;;;0.20;;
8151;SDS011;4117;53.622;9.958;2023-04-01T13:01:27;0.93;;;0.47;;
8151;SDS011;4117;53.622;9.958;2023-04-01T13:04:06;0.20;;;0.20;;
8151;SDS011;4117;53.622;9.958;2023-04-01T13:09:51;0.47;;;0.47;;
8151;SDS011;4117;53.622;9.958;2023-04-01T13:12:33;0.67;;;0.63;;
8151;SDS011;4117;53.622;9.958;2023-04-01T13:15:28;0.70;;;0.50;;
8151;SDS011;4117;53.622;9.958;2023-04-01T13:18:04;1.03;;;0.57;;
8151;SDS011;4117;53.622;9.958;2023-04-01T13:20:43;0.83;;;0.60;;
8151;SDS011;4117;53.622;9.958;2023-04-01T13:23:18;0.37;;;0.33;;
8151;SDS011;4117;53.622;9.958;2023-04-01T13:26:02;0.57;;;0.50;;
8151;SDS011;4117;53.622;9.958;2023-04-01T13:28:40;0.70;;;0.50;;
8151;SDS011;4117;53.622;9.958;2023-04-01T13:31:18;0.50;;;0.50;;
8151;SDS011;4117;53.622;9.958;2023-04-01T13:33:59;0.60;;;0.57;;
8151;SDS011;4117;53.622;9.958;2023-04-01T13:36:36;0.73;;;0.73;;
8151;SDS011;4117;53.622;9.958;2023-04-01T13:39:19;0.93;;;0.67;;
8151;SDS011;4117;53.622;9.958;2023-04-01T13:42:06;0.67;;;0.50;;
8151;SDS011;4117;53.622;9.958;2023-04-01T13:44:43;0.77;;;0.70;;
8151;SDS011;4117;53.622;9.958;2023-04-01T13:47:27;0.87;;;0.50;;
8151;SDS011;4117;53.622;9.958;2023-04-01T13:53:44;0.50;;;0.40;;
8151;SDS011;4117;53.622;9.958;2023-04-01T13:56:34;0.37;;;0.37;;
8151;SDS011;4117;53.622;9.958;2023-04-01T14:02:29;0.60;;;0.60;;
8151;SDS011;4117;53.622;9.958;2023-04-01T14:05:38;0.30;;;0.30;;
8151;SDS011;4117;53.622;9.958;2023-04-01T14:08:17;1.20;;;0.67;;
8151;SDS011;4117;53.622;9.958;2023-04-01T14:10:56;0.97;;;0.33;;
8151;SDS011;4117;53.622;9.958;2023-04-01T14:13:38;1.10;;;0.70;;
8151;SDS011;4117;53.622;9.958;2023-04-01T14:16:19;0.63;;;0.57;;
8151;SDS011;4117;53.622;9.958;2023-04-01T14:19:08;0.70;;;0.60;;
8151;SDS011;4117;53.622;9.958;2023-04-01T14:21:51;0.60;;;0.60;;
8151;SDS011;4117;53.622;9.958;2023-04-01T14:30:15;0.57;;;0.50;;
8151;SDS011;4117;53.622;9.958;2023-04-01T14:32:56;0.83;;;0.77;;
8151;SDS011;4117;53.622;9.958;2023-04-01T14:35:37;0.40;;;0.40;;
8151;SDS011;4117;53.622;9.958;2023-04-01T14:38:21;1.13;;;0.80;;
8151;SDS011;4117;53.622;9.958;2023-04-01T14:40:55;0.60;;;0.50;;
8151;SDS011;4117;53.622;9.958;2023-04-01T14:43:47;0.60;;;0.43;;
8151;SDS011;4117;53.622;9.958;2023-04-01T14:49:48;0.30;;;0.30;;
8151;SDS011;4117;53.622;9.958;2023-04-01T14:52:22;0.80;;;0.47;;
8151;SDS011;4117;53.622;9.958;2023-04-01T14:54:55;0.77;;;0.67;;
8151;SDS011;4117;53.622;9.958;2023-04-01T14:57:25;0.80;;;0.50;;
8151;SDS011;4117;53.622;9.958;2023-04-01T14:59:59;0.43;;;0.43;;
8151;SDS011;4117;53.622;9.958;2023-04-01T15:02:43;1.27;;;0.77;;
8151;SDS011;4117;53.622;9.958;2023-04-01T15:05:19;0.37;;;0.27;;
8151;SDS011;4117;53.622;9.958;2023-04-01T15:08:00;0.50;;;0.50;;
8151;SDS011;4117;53.622;9.958;2023-04-01T15:10:43;0.50;;;0.50;;
8151;SDS011;4117;53.622;9.958;2023-04-01T15:16:23;0.60;;;0.50;;
8151;SDS011;4117;53.622;9.958;2023-04-01T15:18:56;0.50;;;0.50;;
8151;SDS011;4117;53.622;9.958;2023-04-01T15:21:40;0.73;;;0.50;;
8151;SDS011;4117;53.622;9.958;2023-04-01T15:24:19;0.70;;;0.70;;
8151;SDS011;4117;53.622;9.958;2023-04-01T15:26:56;0.70;;;0.63;;
8151;SDS011;4117;53.622;9.958;2023-04-01T15:29:39;1.60;;;0.57;;
8151;SDS011;4117;53.622;9.958;2023-04-01T15:32:19;0.43;;;0.30;;
8151;SDS011;4117;53.622;9.958;2023-04-01T15:34:53;0.50;;;0.50;;
8151;SDS011;4117;53.622;9.958;2023-04-01T15:37:31;2.63;;;0.70;;
8151;SDS011;4117;53.622;9.958;2023-04-01T15:40:08;1.03;;;0.63;;
8151;SDS011;4117;53.622;9.958;2023-04-01T15:42:53;0.43;;;0.43;;
8151;SDS011;4117;53.622;9.958;2023-04-01T15:45:40;0.73;;;0.50;;
8151;SDS011;4117;53.622;9.958;2023-04-01T15:51:20;0.10;;;0.10;;
8151;SDS011;4117;53.622;9.958;2023-04-01T15:54:18;0.60;;;0.60;;
8151;SDS011;4117;53.622;9.958;2023-04-01T16:00:10;0.67;;;0.60;;
8151;SDS011;4117;53.622;9.958;2023-04-01T16:02:49;1.83;;;0.70;;
8151;SDS011;4117;53.622;9.958;2023-04-01T16:05:34;0.60;;;0.60;;
8151;SDS011;4117;53.622;9.958;2023-04-01T16:08:16;1.07;;;0.97;;
8151;SDS011;4117;53.622;9.958;2023-04-01T16:11:12;0.83;;;0.83;;
8151;SDS011;4117;53.622;9.958;2023-04-01T16:13:51;0.97;;;0.73;;
8151;SDS011;4117;53.622;9.958;2023-04-01T16:16:33;1.43;;;0.70;;
8151;SDS011;4117;53.622;9.958;2023-04-01T16:19:28;0.80;;;0.40;;
8151;SDS011;4117;53.622;9.958;2023-04-01T16:22:05;1.60;;;0.60;;
8151;SDS011;4117;53.622;9.958;2023-04-01T16:24:35;1.40;;;1.00;;
8151;SDS011;4117;53.622;9.958;2023-04-01T16:27:13;0.80;;;0.80;;
8151;SDS011;4117;53.622;9.958;2023-04-01T16:29:46;2.60;;;1.03;;
8151;SDS011;4117;53.622;9.958;2023-04-01T16:32:21;0.57;;;0.57;;
8151;SDS011;4117;53.622;9.958;2023-04-01T16:37:52;1.10;;;1.00;;
8151;SDS011;4117;53.622;9.958;2023-04-01T16:40:26;2.10;;;0.77;;
8151;SDS011;4117;53.622;9.958;2023-04-01T16:43:11;0.40;;;0.40;;
8151;SDS011;4117;53.622;9.958;2023-04-01T16:45:45;0.27;;;0.27;;
8151;SDS011;4117;53.622;9.958;2023-04-01T16:48:21;0.90;;;0.80;;
8151;SDS011;4117;53.622;9.958;2023-04-01T16:50:58;0.70;;;0.40;;
8151;SDS011;4117;53.622;9.958;2023-04-01T16:53:35;0.87;;;0.80;;
8151;SDS011;4117;53.622;9.958;2023-04-01T16:56:10;1.40;;;0.80;;
8151;SDS011;4117;53.622;9.958;2023-04-01T16:58:41;0.90;;;0.60;;
8151;SDS011;4117;53.622;9.958;2023-04-01T17:01:16;1.00;;;0.47;;
8151;SDS011;4117;53.622;9.958;2023-04-01T17:03:49;6.40;;;0.70;;
8151;SDS011;4117;53.622;9.958;2023-04-01T17:06:25;0.50;;;0.40;;
8151;SDS011;4117;53.622;9.958;2023-04-01T17:09:17;0.40;;;0.40;;
8151;SDS011;4117;53.622;9.958;2023-04-01T17:11:54;0.23;;;0.20;;
8151;SDS011;4117;53.622;9.958;2023-04-01T17:14:29;1.03;;;0.50;;
8151;SDS011;4117;53.622;9.958;2023-04-01T17:17:13;1.30;;;0.70;;
8151;SDS011;4117;53.622;9.958;2023-04-01T17:20:01;0.50;;;0.50;;
8151;SDS011;4117;53.622;9.958;2023-04-01T17:22:43;0.20;;;0.20;;
8151;SDS011;4117;53.622;9.958;2023-04-01T17:25:36;0.50;;;0.50;;
8151;SDS011;4117;53.622;9.958;2023-04-01T17:28:17;0.27;;;0.27;;
8151;SDS011;4117;53.622;9.958;2023-04-01T17:30:55;0.83;;;0.70;;
8151;SDS011;4117;53.622;9.958;2023-04-01T17:33:31;0.23;;;0.23;;
8151;SDS011;4117;53.622;9.958;2023-04-01T17:36:16;0.87;;;0.60;;
8151;SDS011;4117;53.622;9.958;2023-04-01T17:38:59;1.03;;;0.77;;
8151;SDS011;4117;53.622;9.958;2023-04-01T17:41:41;0.70;;;0.63;;
8151;SDS011;4117;53.622;9.958;2023-04-01T17:44:22;0.37;;;0.37;;
8151;SDS011;4117;53.622;9.958;2023-04-01T17:50:20;0.53;;;0.53;;
8151;SDS011;4117;53.622;9.958;2023-04-01T17:52:57;0.60;;;0.47;;
8151;SDS011;4117;53.622;9.958;2023-04-01T17:55:43;0.50;;;0.50;;
8151;SDS011;4117;53.622;9.958;2023-04-01T17:58:22;1.13;;;0.80;;
8151;SDS011;4117;53.622;9.958;2023-04-01T18:01:04;0.47;;;0.47;;
8151;SDS011;4117;53.622;9.958;2023-04-01T18:03:57;0.70;;;0.70;;
8151;SDS011;4117;53.622;9.958;2023-04-01T18:06:49;0.40;;;0.40;;
8151;SDS011;4117;53.622;9.958;2023-04-01T18:09:42;1.60;;;0.80;;
8151;SDS011;4117;53.622;9.958;2023-04-01T18:12:21;0.60;;;0.60;;
8151;SDS011;4117;53.622;9.958;2023-04-01T18:15:04;0.30;;;0.30;;
8151;SDS011;4117;53.622;9.958;2023-04-01T18:17:55;2.17;;;1.13;;
8151;SDS011;4117;53.622;9.958;2023-04-01T18:20:36;0.67;;;0.50;;
8151;SDS011;4117;53.622;9.958;2023-04-01T18:23:14;1.37;;;0.70;;
8151;SDS011;4117;53.622;9.958;2023-04-01T18:25:52;0.80;;;0.57;;
8151;SDS011;4117;53.622;9.958;2023-04-01T18:28:22;0.83;;;0.77;;